createdAt,value
2023-01-18T00:02:54.959Z,86.90
2023-01-18T00:05:56.718Z,86.70
2023-01-18T00:09:00.585Z,86.60
2023-01-18T00:12:02.204Z,86.80
2023-01-18T00:15:06.305Z,86.70
2023-01-18T00:18:07.957Z,86.70
2023-01-18T00:21:12.125Z,86.80
2023-01-18T00:24:14.390Z,87.00
2023-01-18T00:27:17.893Z,86.80
2023-01-18T00:30:21.716Z,87.10
2023-01-18T00:33:25.257Z,87.70
2023-01-18T00:36:26.722Z,87.80
2023-01-18T00:39:30.185Z,87.40
2023-01-18T00:42:50.849Z,87.60
2023-01-18T00:45:54.317Z,87.00
2023-01-18T00:48:56.761Z,87.60
2023-01-18T00:52:00.220Z,87.30
2023-01-18T00:55:03.373Z,88.50
2023-01-18T00:58:06.869Z,87.50
2023-01-18T01:01:09.470Z,87.50
2023-01-18T01:04:31.855Z,87.60
2023-01-18T01:07:33.431Z,87.10
2023-01-18T01:10:36.892Z,87.80
2023-01-18T01:13:57.281Z,88.10
2023-01-18T01:17:19.503Z,87.60
2023-01-18T01:20:40.533Z,88.40
2023-01-18T01:24:02.809Z,88.90
2023-01-18T01:27:04.471Z,88.70
2023-01-18T01:30:08.209Z,88.80
2023-01-18T01:33:09.751Z,89.20
2023-01-18T01:36:18.557Z,88.90
2023-01-18T01:39:20.009Z,88.70
2023-01-18T01:42:23.493Z,89.70
2023-01-18T01:45:29.218Z,89.40
2023-01-18T01:48:32.877Z,89.70
2023-01-18T01:51:37.464Z,91.20
2023-01-18T01:54:52.038Z,91.60
2023-01-18T01:58:09.157Z,87.00
2023-01-18T02:01:12.666Z,91.90
2023-01-18T02:04:14.156Z,88.10
2023-01-18T02:07:17.679Z,86.30
2023-01-18T02:10:19.381Z,86.30
2023-01-18T02:13:23.610Z,86.40
2023-01-18T02:16:33.756Z,86.30
2023-01-18T02:20:09.401Z,86.30
2023-01-18T02:23:34.426Z,86.40
2023-01-18T02:27:25.346Z,86.30
2023-01-18T02:30:35.687Z,86.30
2023-01-18T02:33:53.924Z,86.30
2023-01-18T02:37:34.084Z,86.40
2023-01-18T02:40:41.613Z,86.30
2023-01-18T02:44:03.987Z,86.30
2023-01-18T02:47:09.075Z,86.40
2023-01-18T02:50:10.723Z,86.40
2023-01-18T02:53:15.245Z,86.50
2023-01-18T02:56:20.163Z,86.30
2023-01-18T02:59:34.703Z,86.40
2023-01-18T03:02:37.665Z,86.30
2023-01-18T03:05:43.160Z,86.40
2023-01-18T03:08:47.282Z,86.40
2023-01-18T03:12:02.365Z,86.40
2023-01-18T03:15:47.072Z,86.40
2023-01-18T03:19:03.605Z,86.30
2023-01-18T03:22:05.743Z,86.50
2023-01-18T03:25:12.486Z,86.30
2023-01-18T03:28:54.565Z,86.30
2023-01-18T03:32:31.685Z,86.40
2023-01-18T03:35:34.058Z,86.30
2023-01-18T03:38:39.146Z,86.40
2023-01-18T03:41:43.868Z,86.40
2023-01-18T03:45:12.380Z,86.40
2023-01-18T03:48:14.905Z,86.40
2023-01-18T03:51:46.627Z,86.40
2023-01-18T03:55:25.225Z,86.40
2023-01-18T03:58:34.474Z,86.40
2023-01-18T04:01:36.439Z,86.40
2023-01-18T04:04:40.005Z,86.40
2023-01-18T04:07:41.802Z,86.40
2023-01-18T04:10:45.261Z,86.40
2023-01-18T04:13:46.778Z,86.40
2023-01-18T04:16:50.262Z,86.40
2023-01-18T04:19:52.047Z,86.50
2023-01-18T04:22:55.716Z,86.50
2023-01-18T04:25:57.442Z,86.50
2023-01-18T04:29:01.151Z,86.50
2023-01-18T04:32:03.035Z,86.50
2023-01-18T04:35:06.812Z,86.50
2023-01-18T04:38:08.320Z,86.50
2023-01-18T04:41:11.873Z,86.50
2023-01-18T04:44:14.186Z,86.50
2023-01-18T04:47:18.081Z,86.60
2023-01-18T04:50:19.546Z,86.50
2023-01-18T04:53:23.111Z,86.60
2023-01-18T04:56:24.951Z,86.50
2023-01-18T04:59:28.450Z,86.50
2023-01-18T05:02:29.992Z,86.50
2023-01-18T05:05:33.446Z,86.50
2023-01-18T05:08:35.295Z,86.50
2023-01-18T05:11:38.723Z,86.40
2023-01-18T05:14:40.239Z,86.50
2023-01-18T05:17:43.902Z,87.10
2023-01-18T05:20:46.430Z,86.50
2023-01-18T05:23:49.869Z,86.50
2023-01-18T05:26:51.358Z,86.60
2023-01-18T05:29:54.939Z,86.50
2023-01-18T05:32:56.838Z,86.50
2023-01-18T05:36:00.584Z,86.50
2023-01-18T05:39:02.057Z,86.50
2023-01-18T05:42:05.739Z,86.50
2023-01-18T05:45:07.824Z,86.60
2023-01-18T05:48:11.729Z,86.50
2023-01-18T05:51:13.462Z,86.60
2023-01-18T05:54:17.042Z,86.60
2023-01-18T05:57:18.626Z,86.60
2023-01-18T06:00:22.463Z,86.60
2023-01-18T06:03:24.781Z,86.60
2023-01-18T06:06:28.231Z,86.50
2023-01-18T06:09:29.871Z,86.50
2023-01-18T06:12:33.378Z,86.50
2023-01-18T06:15:35.422Z,86.60
2023-01-18T06:18:39.235Z,86.60
2023-01-18T06:21:40.690Z,86.60
2023-01-18T06:24:44.220Z,86.60
2023-01-18T06:27:45.674Z,86.60
2023-01-18T06:30:52.759Z,86.60
2023-01-18T06:33:54.230Z,86.70
2023-01-18T06:36:57.718Z,86.70
2023-01-18T06:40:00.717Z,86.90
2023-01-18T06:43:08.216Z,86.70
2023-01-18T06:46:11.066Z,86.70
2023-01-18T06:49:14.626Z,86.70
2023-01-18T06:52:16.212Z,86.70
2023-01-18T06:55:19.848Z,86.70
2023-01-18T06:58:21.349Z,86.80
2023-01-18T07:01:25.949Z,86.70
2023-01-18T07:04:27.538Z,86.70
2023-01-18T07:07:31.060Z,86.80
2023-01-18T07:10:32.567Z,86.80
2023-01-18T07:13:39.569Z,86.70
2023-01-18T07:16:41.335Z,86.70
2023-01-18T07:19:44.959Z,86.70
2023-01-18T07:22:51.044Z,86.70
2023-01-18T07:26:16.666Z,86.80
2023-01-18T07:29:18.210Z,86.80
2023-01-18T07:32:21.754Z,87.40
2023-01-18T07:35:23.226Z,87.40
2023-01-18T07:38:27.184Z,86.80
2023-01-18T07:41:30.921Z,86.80
2023-01-18T07:44:34.624Z,86.80
2023-01-18T07:47:38.537Z,86.80
2023-01-18T07:50:42.142Z,86.80
2023-01-18T07:53:54.480Z,86.80
2023-01-18T07:56:58.972Z,86.80
2023-01-18T08:00:00.434Z,86.80
2023-01-18T08:03:04.387Z,86.80
2023-01-18T08:06:07.265Z,86.90
2023-01-18T08:09:10.744Z,86.90
2023-01-18T08:12:17.364Z,86.90
2023-01-18T08:15:21.032Z,86.90
2023-01-18T08:18:23.120Z,86.90
2023-01-18T08:21:26.749Z,87.60
2023-01-18T08:24:28.316Z,87.00
2023-01-18T08:27:31.805Z,87.00
2023-01-18T08:30:37.390Z,87.00
2023-01-18T08:33:46.315Z,86.90
2023-01-18T08:36:47.794Z,87.00
2023-01-18T08:39:51.378Z,87.00
2023-01-18T08:42:58.477Z,87.10
2023-01-18T08:46:02.324Z,87.10
2023-01-18T08:49:05.768Z,87.10
2023-01-18T08:52:10.447Z,87.20
2023-01-18T08:55:11.955Z,87.10
2023-01-18T08:58:15.457Z,87.20
2023-01-18T09:01:17.480Z,87.20
2023-01-18T09:04:22.261Z,87.10
2023-01-18T09:07:23.730Z,87.20
2023-01-18T09:10:27.229Z,87.20
2023-01-18T09:13:28.952Z,87.30
2023-01-18T09:16:32.894Z,87.30
2023-01-18T09:19:34.381Z,87.30
2023-01-18T09:22:38.585Z,87.20
2023-01-18T09:25:40.464Z,87.30
2023-01-18T09:28:44.335Z,87.20
2023-01-18T09:31:45.887Z,87.30
2023-01-18T09:34:50.211Z,87.30
2023-01-18T09:37:51.797Z,87.20
2023-01-18T09:40:55.234Z,87.20
2023-01-18T09:44:10.871Z,87.30
2023-01-18T09:47:24.395Z,87.20
2023-01-18T09:50:25.994Z,87.20
2023-01-18T09:53:38.353Z,87.30
2023-01-18T09:57:11.367Z,87.30
2023-01-18T10:00:21.193Z,87.30
2023-01-18T10:03:46.616Z,87.30
2023-01-18T10:07:07.579Z,87.50
2023-01-18T10:10:18.432Z,87.50
2023-01-18T10:13:38.827Z,87.60
2023-01-18T10:16:40.583Z,87.60
2023-01-18T10:19:44.799Z,87.70
2023-01-18T10:22:53.005Z,87.90
2023-01-18T10:26:03.214Z,87.90
2023-01-18T10:29:26.442Z,87.90
2023-01-18T10:32:32.325Z,87.90
2023-01-18T10:35:39.151Z,88.00
2023-01-18T10:38:43.998Z,88.00
2023-01-18T10:41:45.708Z,88.00
2023-01-18T10:44:49.217Z,88.00
2023-01-18T10:47:53.043Z,87.90
2023-01-18T10:51:00.046Z,87.80
2023-01-18T10:54:22.521Z,87.70
2023-01-18T10:57:29.790Z,87.60
2023-01-18T11:00:34.844Z,87.50
2023-01-18T11:03:45.827Z,87.60
2023-01-18T11:06:56.766Z,87.60
2023-01-18T11:10:05.941Z,87.60
2023-01-18T11:13:24.888Z,87.50
2023-01-18T11:16:30.728Z,87.50
2023-01-18T11:19:32.668Z,87.50
2023-01-18T11:22:37.620Z,87.40
2023-01-18T11:25:40.156Z,87.50
2023-01-18T11:28:59.527Z,87.40
2023-01-18T11:32:06.564Z,87.40
2023-01-18T11:35:10.221Z,87.30
2023-01-18T11:38:18.251Z,87.30
2023-01-18T11:41:22.895Z,87.30
2023-01-18T11:44:30.340Z,87.20
2023-01-18T11:48:16.182Z,87.20
2023-01-18T11:51:33.245Z,87.10
2023-01-18T11:54:41.583Z,87.10
2023-01-18T11:57:44.895Z,87.10
2023-01-18T12:01:14.232Z,87.10
2023-01-18T12:04:32.618Z,88.10
2023-01-18T12:07:46.521Z,87.10
2023-01-18T12:11:06.539Z,87.10
2023-01-18T12:14:38.209Z,87.00
2023-01-18T12:18:12.367Z,86.90
2023-01-18T12:21:46.076Z,88.30
2023-01-18T12:25:27.070Z,87.70
2023-01-18T12:29:15.140Z,86.80
2023-01-18T12:32:25.882Z,86.90
2023-01-18T12:36:04.432Z,86.80
2023-01-18T12:39:48.992Z,86.70
2023-01-18T12:43:16.406Z,86.70
2023-01-18T12:46:30.752Z,86.70
2023-01-18T12:49:41.168Z,86.70
2023-01-18T12:52:51.207Z,86.70
2023-01-18T12:55:55.630Z,86.70
2023-01-18T12:59:00.217Z,86.60
2023-01-18T13:02:27.145Z,86.60
2023-01-18T13:05:59.088Z,86.50
2023-01-18T13:09:06.584Z,86.50
2023-01-18T13:12:08.639Z,86.50
2023-01-18T13:15:45.770Z,86.50
2023-01-18T13:19:03.460Z,86.40
2023-01-18T13:22:15.195Z,86.40
2023-01-18T13:25:19.432Z,86.40
2023-01-18T13:28:25.220Z,86.30
2023-01-18T13:31:30.712Z,86.30
2023-01-18T13:34:47.762Z,86.40
2023-01-18T13:37:55.959Z,86.30
2023-01-18T13:41:03.291Z,86.30
2023-01-18T13:44:26.247Z,86.30
2023-01-18T13:47:38.723Z,86.30
2023-01-18T13:50:41.747Z,86.20
2023-01-18T13:53:49.451Z,86.20
2023-01-18T13:57:08.881Z,86.10
2023-01-18T14:00:23.887Z,86.00
2023-01-18T14:03:29.684Z,85.90
2023-01-18T14:06:41.075Z,85.90
2023-01-18T14:09:46.400Z,85.90
2023-01-18T14:12:52.274Z,85.90
2023-01-18T14:15:54.538Z,85.90
2023-01-18T14:19:18.169Z,85.90
2023-01-18T14:22:22.615Z,85.80
2023-01-18T14:25:54.839Z,85.80
2023-01-18T14:29:06.744Z,85.70
2023-01-18T14:32:21.028Z,85.70
2023-01-18T14:35:25.883Z,85.70
2023-01-18T14:38:30.341Z,85.70
2023-01-18T14:41:32.007Z,86.20
2023-01-18T14:44:56.909Z,85.60
2023-01-18T14:48:11.200Z,85.60
2023-01-18T14:51:27.540Z,85.60
2023-01-18T14:54:30.070Z,85.60
2023-01-18T14:57:33.594Z,85.60
2023-01-18T15:00:51.453Z,85.50
2023-01-18T15:03:57.453Z,85.50
2023-01-18T15:07:04.223Z,85.50
2023-01-18T15:10:08.836Z,85.40
2023-01-18T15:13:16.544Z,85.40
2023-01-18T15:16:23.467Z,85.40
2023-01-18T15:19:45.665Z,85.40
2023-01-18T15:22:50.433Z,85.30
2023-01-18T15:25:53.680Z,85.40
2023-01-18T15:29:08.073Z,85.30
2023-01-18T15:32:15.877Z,85.20
2023-01-18T15:35:22.113Z,85.30
2023-01-18T15:38:24.012Z,85.30
2023-01-18T15:41:31.657Z,85.30
2023-01-18T15:44:52.953Z,85.20
2023-01-18T15:47:59.972Z,85.20
2023-01-18T15:51:08.499Z,85.20
2023-01-18T15:54:19.231Z,85.20
2023-01-18T15:57:22.294Z,85.20
2023-01-18T16:00:28.915Z,85.20
2023-01-18T16:03:37.324Z,85.20
2023-01-18T16:06:40.956Z,85.10
2023-01-18T16:09:42.445Z,85.10
2023-01-18T16:12:46.214Z,85.10
2023-01-18T16:16:03.936Z,85.10
2023-01-18T16:19:21.627Z,85.00
2023-01-18T16:22:33.129Z,85.00
2023-01-18T16:25:37.262Z,85.00
2023-01-18T16:28:38.940Z,85.00
2023-01-18T16:31:43.507Z,85.10
2023-01-18T16:34:45.045Z,85.10
2023-01-18T16:37:49.388Z,85.00
2023-01-18T16:40:51.090Z,85.10
2023-01-18T16:43:54.578Z,85.10
2023-01-18T16:46:56.023Z,85.00
2023-01-18T16:49:59.667Z,85.70
2023-01-18T16:53:01.177Z,85.10
2023-01-18T16:56:05.050Z,85.10
2023-01-18T16:59:24.031Z,85.10
2023-01-18T17:02:27.636Z,85.10
2023-01-18T17:05:29.408Z,85.10
2023-01-18T17:08:33.188Z,86.10
2023-01-18T17:11:34.840Z,85.10
2023-01-18T17:14:38.283Z,85.10
2023-01-18T17:17:39.855Z,85.20
2023-01-18T17:20:44.137Z,85.20
2023-01-18T17:23:45.841Z,85.20
2023-01-18T17:26:49.367Z,85.20
2023-01-18T17:29:50.824Z,85.20
2023-01-18T17:32:54.647Z,85.10
2023-01-18T17:35:56.196Z,85.20
2023-01-18T17:38:59.731Z,85.20
2023-01-18T17:42:01.295Z,85.20
2023-01-18T17:45:09.239Z,85.20
2023-01-18T17:48:11.093Z,85.20
2023-01-18T17:51:14.674Z,85.20
2023-01-18T17:54:20.691Z,85.20
2023-01-18T17:57:24.717Z,85.20
2023-01-18T18:00:26.307Z,85.20
2023-01-18T18:03:29.733Z,85.30
2023-01-18T18:06:33.680Z,85.20
2023-01-18T18:09:40.150Z,85.20
2023-01-18T18:12:41.929Z,85.20
2023-01-18T18:15:47.903Z,85.20
2023-01-18T18:18:49.461Z,85.20
2023-01-18T18:21:52.964Z,85.20
2023-01-18T18:24:54.572Z,85.20
2023-01-18T18:27:58.090Z,85.20
2023-01-18T18:31:00.545Z,85.20
2023-01-18T18:34:04.279Z,85.10
2023-01-18T18:37:05.932Z,85.10
2023-01-18T18:40:10.049Z,85.10
2023-01-18T18:43:11.515Z,85.10
2023-01-18T18:46:15.062Z,85.20
2023-01-18T18:49:16.584Z,85.10
2023-01-18T18:52:20.067Z,85.10
2023-01-18T18:55:21.604Z,85.10
2023-01-18T18:58:25.335Z,85.20
2023-01-18T19:01:28.855Z,85.10
2023-01-18T19:04:33.476Z,85.10
2023-01-18T19:07:35.739Z,85.10
2023-01-18T19:10:39.251Z,85.10
2023-01-18T19:13:42.032Z,85.10
2023-01-18T19:16:45.495Z,85.10
2023-01-18T19:19:46.915Z,85.10
2023-01-18T19:22:50.959Z,85.10
2023-01-18T19:25:52.765Z,85.20
2023-01-18T19:28:56.185Z,85.10
2023-01-18T19:31:59.248Z,85.20
2023-01-18T19:35:02.747Z,85.20
2023-01-18T19:38:04.856Z,85.20
2023-01-18T19:41:08.348Z,85.20
2023-01-18T19:44:12.947Z,85.30
2023-01-18T19:47:16.440Z,85.30
2023-01-18T19:50:18.375Z,85.30
2023-01-18T19:53:21.878Z,85.30
2023-01-18T19:56:25.007Z,85.30
2023-01-18T19:59:28.461Z,85.20
2023-01-18T20:02:30.076Z,85.30
2023-01-18T20:05:33.605Z,85.20
2023-01-18T20:08:35.978Z,85.20
2023-01-18T20:11:40.292Z,85.20
2023-01-18T20:14:42.077Z,85.20
2023-01-18T20:17:45.528Z,85.30
2023-01-18T20:20:47.203Z,85.30
2023-01-18T20:23:50.697Z,85.30
2023-01-18T20:26:52.215Z,85.20
2023-01-18T20:29:57.598Z,85.30
2023-01-18T20:32:59.630Z,85.20
2023-01-18T20:36:05.481Z,85.20
2023-01-18T20:39:06.944Z,85.70
2023-01-18T20:42:10.455Z,85.20
2023-01-18T20:45:11.898Z,85.30
2023-01-18T20:48:15.385Z,85.30
2023-01-18T20:51:17.376Z,85.30
2023-01-18T20:54:20.902Z,85.20
2023-01-18T20:57:23.480Z,85.20
2023-01-18T21:00:27.023Z,85.30
2023-01-18T21:03:28.494Z,85.20
2023-01-18T21:06:32.107Z,85.20
2023-01-18T21:09:33.543Z,85.20
2023-01-18T21:12:37.112Z,85.20
2023-01-18T21:15:41.022Z,85.20
2023-01-18T21:18:44.765Z,85.20
2023-01-18T21:21:46.325Z,85.20
2023-01-18T21:24:49.833Z,85.30
2023-01-18T21:27:51.445Z,85.20
2023-01-18T21:30:56.098Z,85.20
2023-01-18T21:33:57.798Z,85.10
2023-01-18T21:37:02.121Z,85.20
2023-01-18T21:40:04.187Z,85.20
2023-01-18T21:43:30.411Z,85.10
2023-01-18T21:46:31.907Z,85.20
2023-01-18T21:53:34.197Z,85.10
2023-01-18T21:56:37.747Z,86.40
2023-01-18T21:59:39.213Z,84.40
2023-01-18T22:02:42.846Z,85.10
2023-01-18T22:05:44.428Z,85.10
2023-01-18T22:08:47.900Z,85.10
2023-01-18T22:11:49.592Z,85.20
2023-01-18T22:14:53.499Z,85.20
2023-01-18T22:17:55.163Z,85.20
2023-01-18T22:20:58.856Z,85.20
2023-01-18T22:24:00.360Z,85.20
2023-01-18T22:27:04.170Z,85.20
2023-01-18T22:30:06.244Z,85.20
2023-01-18T22:33:09.736Z,85.20
2023-01-18T22:36:12.549Z,85.20
2023-01-18T22:39:16.245Z,85.20
2023-01-18T22:42:18.364Z,85.10
2023-01-18T22:45:21.930Z,85.10
2023-01-18T22:48:24.179Z,85.20
2023-01-18T22:51:27.763Z,85.20
2023-01-18T22:54:29.284Z,85.20
2023-01-18T22:57:32.866Z,85.20
2023-01-18T23:00:34.369Z,85.20
2023-01-18T23:03:37.857Z,85.20
2023-01-18T23:06:46.013Z,85.30
2023-01-18T23:09:51.301Z,85.30
2023-01-18T23:12:52.989Z,85.30
2023-01-18T23:16:15.155Z,85.30
2023-01-18T23:19:19.814Z,85.40
2023-01-18T23:22:21.389Z,85.40
2023-01-18T23:25:24.971Z,85.40
2023-01-18T23:28:41.816Z,85.60
2023-01-18T23:31:46.131Z,85.50
2023-01-18T23:34:47.614Z,85.50
2023-01-18T23:37:51.085Z,85.60
2023-01-18T23:41:13.464Z,85.60
2023-01-18T23:44:35.633Z,85.60
2023-01-18T23:47:55.952Z,85.60
2023-01-18T23:51:18.560Z,85.70
2023-01-18T23:54:20.257Z,85.60
2023-01-18T23:57:23.748Z,85.60
